Henefer, UT (84033)

6:20 PM MST on January 28, 2015 (GMT -0700)
APRSWXNET Morgan 1426 UT US | Change Station
CLOSE
Current Station
Personal Weather Station
Location: Morgan, UT
Elevation: 5104 ft
Nearby Weather Stations

Elev 5104 ft 41.05 °N, 111.67 °W | Updated 34 minutes ago

Overcast
Overcast
42 °F
Feels Like 42 °F
N
0
Wind Variable Wind from WSW
Gusts 0.0 mph

Today
High -- | Low -- °F
--% Chance of Precip.
Yesterday
High -- | Low -- °F
Precip. -- in
7:40 AM 5:37 PM
Waxing Gibbous, 69% visible
Pressure 30.31 in
Visibility 10.0 miles
Clouds Mostly Cloudy 3200 ft
Overcast 5000 ft
Windchill 42 °F
Dew Point 35 °F
Humidity 75%
Rainfall 0.02 in
Snow Depth Not available.
UV 0 out of 12
Pollen .10 out of 12
Air Quality Not available.
Flu Activity Not available.
METAR KHIF 290058Z AUTO 34004KT 10SM BKN032 OVC050 05/01 A3032 RMK AO2 SLP264 T00530008

More Conditions Fewer Conditions

Pressure 30.31 in
Visibility 10.0 miles
Clouds Mostly Cloudy 3200 ft
Overcast 5000 ft
Windchill 42 °F
Dew Point 35 °F
Humidity 75%
Rainfall 0.02 in
Snow Depth Not available.
UV 0 out of 12
Pollen .10 out of 12
Air Quality Not available.
Flu Activity Not available.
METAR KHIF 290058Z AUTO 34004KT 10SM BKN032 OVC050 05/01 A3032 RMK AO2 SLP264 T00530008

More Conditions Fewer Conditions

10-Day Weather Forecast

Almanac

Astronomy

Jan. 28, 2015 Rise Set
Actual Time
Civil Twilight
Nautical Twilight
Astronomical Twilight
Moon
Length of Visible Light
Length of Day
Tomorrow will be .
, % of the Moon is Illuminated

Today's Extremes

State Highs State Lows

Community

WunderPhotos

Upload Photos

1,791,314 photos uploaded!

WunderBlogs® & News

Nearby

Air Quality

  Air Quality AQ Index Pollutant
Not available.

Snow Depth

Station Depth Elevation

Earthquake Activity

City Distance Mag. Time & Date
Minimum magnitude displayed is 2.5.

Coastal Water Temperatures

Place Temperature

Nearby Weather Stations